createdAt,value
2022-10-30T00:02:35.000Z,100
2022-10-30T00:07:35.000Z,100
2022-10-30T00:12:35.000Z,100
2022-10-30T00:17:35.000Z,100
2022-10-30T00:22:34.000Z,100
2022-10-30T00:27:34.000Z,100
2022-10-30T00:32:35.000Z,100
2022-10-30T00:37:34.000Z,100
2022-10-30T00:42:35.000Z,100
2022-10-30T00:47:35.000Z,100
2022-10-30T00:52:35.000Z,100
2022-10-30T00:57:35.000Z,100
2022-10-30T01:02:35.000Z,100
2022-10-30T01:07:35.000Z,100
2022-10-30T01:12:34.000Z,100
2022-10-30T01:17:35.000Z,100
2022-10-30T01:22:34.000Z,100
2022-10-30T01:27:35.000Z,100
2022-10-30T01:32:35.000Z,100
2022-10-30T01:37:34.000Z,100
2022-10-30T01:42:34.000Z,100
2022-10-30T01:47:34.000Z,100
2022-10-30T01:52:35.000Z,100
2022-10-30T01:57:35.000Z,100
2022-10-30T02:02:35.000Z,100
2022-10-30T02:07:35.000Z,100
2022-10-30T02:12:35.000Z,100
2022-10-30T02:17:35.000Z,100
2022-10-30T02:22:34.000Z,100
2022-10-30T02:27:35.000Z,100
2022-10-30T02:37:35.000Z,100
2022-10-30T02:42:34.000Z,100
2022-10-30T02:47:35.000Z,100
2022-10-30T02:52:35.000Z,100
2022-10-30T02:57:34.000Z,100
2022-10-30T03:02:35.000Z,100
2022-10-30T03:07:34.000Z,100
2022-10-30T03:12:34.000Z,100
2022-10-30T03:22:34.000Z,100
2022-10-30T03:27:35.000Z,100
2022-10-30T03:32:34.000Z,100
2022-10-30T03:37:35.000Z,100
2022-10-30T03:42:35.000Z,100
2022-10-30T03:47:34.000Z,100
2022-10-30T03:52:35.000Z,100
2022-10-30T03:57:34.000Z,100
2022-10-30T04:02:35.000Z,100
2022-10-30T04:07:34.000Z,100
2022-10-30T04:12:35.000Z,100
2022-10-30T04:17:34.000Z,100
2022-10-30T04:22:34.000Z,100
2022-10-30T04:27:35.000Z,100
2022-10-30T04:32:34.000Z,100
2022-10-30T04:37:35.000Z,100
2022-10-30T04:42:34.000Z,100
2022-10-30T04:47:35.000Z,100
2022-10-30T04:52:35.000Z,100
2022-10-30T04:57:35.000Z,100
2022-10-30T05:02:35.000Z,100
2022-10-30T05:07:35.000Z,100
2022-10-30T05:12:34.000Z,100
2022-10-30T05:17:35.000Z,100
2022-10-30T05:22:35.000Z,100
2022-10-30T05:27:35.000Z,100
2022-10-30T05:32:34.000Z,100
2022-10-30T05:37:35.000Z,100
2022-10-30T05:42:34.000Z,100
2022-10-30T05:52:35.000Z,100
2022-10-30T05:57:34.000Z,100
2022-10-30T06:02:34.000Z,100
2022-10-30T06:07:34.000Z,100
2022-10-30T06:12:35.000Z,100
2022-10-30T06:17:35.000Z,100
2022-10-30T06:22:35.000Z,100
2022-10-30T06:27:35.000Z,100
2022-10-30T06:32:34.000Z,100
2022-10-30T06:37:35.000Z,95.18
2022-10-30T06:47:35.000Z,42.43
2022-10-30T06:52:34.000Z,38.45
2022-10-30T06:57:35.000Z,37.27
2022-10-30T07:02:34.000Z,34.86
2022-10-30T07:07:35.000Z,32.31
2022-10-30T07:17:34.000Z,30.5
2022-10-30T07:22:35.000Z,36.66
2022-10-30T07:27:34.000Z,41.88
2022-10-30T07:32:35.000Z,35.73
2022-10-30T07:37:35.000Z,34.86
2022-10-30T07:42:35.000Z,39.8
2022-10-30T07:47:35.000Z,49.08
2022-10-30T07:52:35.000Z,49.08
2022-10-30T07:57:34.000Z,57.86
2022-10-30T08:02:35.000Z,44.9
2022-10-30T08:07:34.000Z,35.11
2022-10-30T08:12:35.000Z,32.79
2022-10-30T08:17:35.000Z,37.66
2022-10-30T08:22:34.000Z,43.91
2022-10-30T08:27:35.000Z,48.26
2022-10-30T08:32:35.000Z,48.79
2022-10-30T08:37:34.000Z,49.97
2022-10-30T08:42:35.000Z,49.75
2022-10-30T08:47:35.000Z,50.02
2022-10-30T08:52:35.000Z,53.32
2022-10-30T08:57:34.000Z,57.33
2022-10-30T09:02:35.000Z,60.66
2022-10-30T09:07:35.000Z,60.66
2022-10-30T09:12:35.000Z,62.08
2022-10-30T09:17:35.000Z,63.28
2022-10-30T09:22:34.000Z,66.87
2022-10-30T09:27:35.000Z,68.41
2022-10-30T09:32:35.000Z,71.59
2022-10-30T09:37:35.000Z,71.47
2022-10-30T09:42:35.000Z,74.69
2022-10-30T09:47:34.000Z,78.21
2022-10-30T09:52:35.000Z,77.28
2022-10-30T09:57:34.000Z,81.39
2022-10-30T10:07:34.000Z,82.43
2022-10-30T10:12:34.000Z,79.88
2022-10-30T10:17:34.000Z,74.73
2022-10-30T10:22:35.000Z,74.73
2022-10-30T10:27:35.000Z,73.76
2022-10-30T10:32:34.000Z,74.61
2022-10-30T10:37:35.000Z,75.15
2022-10-30T10:42:35.000Z,78.54
2022-10-30T10:47:35.000Z,78.27
2022-10-30T10:52:35.000Z,81.4
2022-10-30T10:57:34.000Z,87.83
2022-10-30T11:02:35.000Z,97.35
2022-10-30T11:07:34.000Z,100
2022-10-30T11:12:35.000Z,100
2022-10-30T11:17:35.000Z,100
2022-10-30T11:22:35.000Z,100
2022-10-30T11:27:35.000Z,100
2022-10-30T11:32:35.000Z,100
2022-10-30T11:37:34.000Z,100
2022-10-30T11:42:34.000Z,98.33
2022-10-30T11:52:35.000Z,85.2
2022-10-30T11:57:35.000Z,81.12
2022-10-30T12:02:34.000Z,79.59
2022-10-30T12:07:35.000Z,77.97
2022-10-30T12:12:34.000Z,77.47
2022-10-30T12:17:35.000Z,85.97
2022-10-30T12:22:34.000Z,84.18
2022-10-30T12:27:34.000Z,79.14
2022-10-30T12:32:35.000Z,73.32
2022-10-30T12:37:35.000Z,72.63
2022-10-30T12:42:35.000Z,73.38
2022-10-30T12:47:34.000Z,76.08
2022-10-30T12:52:35.000Z,76.08
2022-10-30T12:57:35.000Z,71.76
2022-10-30T13:02:35.000Z,73.31
2022-10-30T13:07:35.000Z,77.72
2022-10-30T13:12:35.000Z,79.25
2022-10-30T13:17:35.000Z,94.14
2022-10-30T13:22:34.000Z,100
2022-10-30T13:27:34.000Z,100
2022-10-30T13:32:35.000Z,100
2022-10-30T13:37:34.000Z,100
2022-10-30T13:42:35.000Z,100
2022-10-30T13:47:35.000Z,100
2022-10-30T13:52:36.000Z,100
2022-10-30T13:57:35.000Z,100
2022-10-30T14:02:35.000Z,100
2022-10-30T14:07:35.000Z,100
2022-10-30T14:12:34.000Z,100
2022-10-30T14:17:34.000Z,100
2022-10-30T14:22:35.000Z,100
2022-10-30T14:27:34.000Z,100
2022-10-30T14:32:34.000Z,100
2022-10-30T14:37:35.000Z,100
2022-10-30T14:42:35.000Z,100
2022-10-30T14:47:35.000Z,100
2022-10-30T14:52:35.000Z,100
2022-10-30T14:57:35.000Z,100
2022-10-30T15:07:34.000Z,100
2022-10-30T15:12:35.000Z,100
2022-10-30T15:17:35.000Z,100
2022-10-30T15:22:35.000Z,100
2022-10-30T15:27:35.000Z,100
2022-10-30T15:32:35.000Z,100
2022-10-30T15:37:34.000Z,100
2022-10-30T15:42:34.000Z,100
2022-10-30T15:47:35.000Z,100
2022-10-30T15:52:34.000Z,100
2022-10-30T15:58:11.000Z,100
2022-10-30T16:02:35.000Z,100
2022-10-30T16:07:34.000Z,100
2022-10-30T16:12:35.000Z,100
2022-10-30T16:17:34.000Z,100
2022-10-30T16:22:34.000Z,100
2022-10-30T16:27:34.000Z,100
2022-10-30T16:32:34.000Z,100
2022-10-30T16:37:34.000Z,100
2022-10-30T16:42:35.000Z,100
2022-10-30T16:47:35.000Z,100
2022-10-30T16:52:35.000Z,100
2022-10-30T16:57:35.000Z,100
2022-10-30T17:02:35.000Z,100
2022-10-30T17:07:34.000Z,100
2022-10-30T17:12:34.000Z,100
2022-10-30T17:17:34.000Z,100
2022-10-30T17:22:35.000Z,100
2022-10-30T17:27:34.000Z,100
2022-10-30T17:32:35.000Z,100
2022-10-30T17:37:35.000Z,100
2022-10-30T17:42:35.000Z,100
2022-10-30T17:47:35.000Z,100
2022-10-30T17:52:35.000Z,100
2022-10-30T17:57:35.000Z,100
2022-10-30T18:02:34.000Z,100
2022-10-30T18:07:35.000Z,100
2022-10-30T18:12:34.000Z,100
2022-10-30T18:17:34.000Z,100
2022-10-30T18:22:35.000Z,100
2022-10-30T18:27:34.000Z,100
2022-10-30T18:32:35.000Z,100
2022-10-30T18:37:34.000Z,100
2022-10-30T18:42:35.000Z,100
2022-10-30T18:47:34.000Z,100
2022-10-30T18:52:34.000Z,100
2022-10-30T18:57:35.000Z,100
2022-10-30T19:07:34.000Z,100
2022-10-30T19:12:34.000Z,100
2022-10-30T19:17:34.000Z,100
2022-10-30T19:22:34.000Z,100
2022-10-30T19:27:34.000Z,100
2022-10-30T19:32:35.000Z,100
2022-10-30T19:37:35.000Z,100
2022-10-30T19:42:35.000Z,100
2022-10-30T19:47:34.000Z,100
2022-10-30T19:52:39.000Z,100
2022-10-30T19:57:35.000Z,100
2022-10-30T20:02:34.000Z,100
2022-10-30T20:07:35.000Z,100
2022-10-30T20:12:34.000Z,100
2022-10-30T20:17:35.000Z,100
2022-10-30T20:22:38.000Z,100
2022-10-30T20:27:34.000Z,100
2022-10-30T20:32:35.000Z,100
2022-10-30T20:37:34.000Z,100
2022-10-30T20:42:35.000Z,100
2022-10-30T20:47:34.000Z,100
2022-10-30T20:52:35.000Z,100
2022-10-30T21:02:35.000Z,100
2022-10-30T21:07:35.000Z,100
2022-10-30T21:12:34.000Z,100
2022-10-30T21:17:35.000Z,100
2022-10-30T21:22:34.000Z,100
2022-10-30T21:27:35.000Z,100
2022-10-30T21:32:35.000Z,100
2022-10-30T21:37:34.000Z,100
2022-10-30T21:42:35.000Z,100
2022-10-30T21:47:35.000Z,100
2022-10-30T21:52:34.000Z,100
2022-10-30T21:57:35.000Z,100
2022-10-30T22:02:34.000Z,100
2022-10-30T22:07:35.000Z,100
2022-10-30T22:12:34.000Z,100
2022-10-30T22:17:35.000Z,99.98
2022-10-30T22:27:34.000Z,100
2022-10-30T22:32:35.000Z,99.68
2022-10-30T22:37:34.000Z,100
2022-10-30T22:42:34.000Z,100
2022-10-30T22:47:34.000Z,99.91
2022-10-30T22:52:35.000Z,99.99
2022-10-30T22:57:34.000Z,99.68
2022-10-30T23:02:35.000Z,99.22
2022-10-30T23:07:34.000Z,98.82
2022-10-30T23:12:35.000Z,99.08
2022-10-30T23:17:35.000Z,98.41
2022-10-30T23:22:35.000Z,94.37
2022-10-30T23:27:34.000Z,96.22
2022-10-30T23:32:34.000Z,94.78
2022-10-30T23:37:35.000Z,94.78
2022-10-30T23:42:35.000Z,96.09
2022-10-30T23:47:34.000Z,92.22
2022-10-30T23:52:35.000Z,93.75
2022-10-30T23:57:35.000Z,88.48
